Time;durP1;ratioP1;P1;durP2;ratioP2;P2;SDS_P1;SDS_P2;PMS_P1;PMS_P2;Temp;Humidity;BMP_temperature;BMP_pressure;BME280_temperature;BME280_humidity;BME280_pressure;Samples;Min_cycle;Max_cycle;Signal;HPM_P1;HPM_P2
2021/12/21 00:02:10;;;;;;;21.23;11.48;;;;;;;;;;5014795;28;20073;-71
2021/12/21 00:04:36;;;;;;;16.73;9.82;;;;;;;;;;5031612;28;20488;-71
2021/12/21 00:07:02;;;;;;;19.13;9.07;;;;;;;;;;5032340;28;20056;-71
2021/12/21 00:09:28;;;;;;;17.00;10.20;;;;;;;;;;4998042;28;20129;-71
2021/12/21 00:11:54;;;;;;;22.23;10.50;;;;;;;;;;5032253;28;20037;-71
2021/12/21 00:14:29;;;;;;;22.17;10.85;;;-0.70;99.90;;;;;;5031756;28;20045;-71
2021/12/21 00:17:09;;;;;;;17.17;8.90;;;-0.70;99.90;;;;;;5014263;28;20042;-71
2021/12/21 00:20:10;;;;;;;17.25;10.65;;;-0.80;99.90;;;;;;5032152;28;20091;-71
2021/12/21 00:25:10;;;;;;;15.43;9.23;;;;;;;;;;5031562;28;20099;-70
2021/12/21 00:27:36;;;;;;;15.32;10.32;;;-0.80;99.90;;;;;;5011819;28;20037;-71
2021/12/21 00:30:02;;;;;;;17.85;9.57;;;;;;;;;;5009880;28;20504;-70
2021/12/21 00:32:28;;;;;;;15.98;9.02;;;;;;;;;;5014688;28;20048;-70
2021/12/21 00:34:54;;;;;;;13.25;9.20;;;;;;;;;;5031480;28;20049;-70
2021/12/21 00:37:22;;;;;;;16.30;9.80;;;;;;;;;;5031896;28;20056;-71
2021/12/21 00:39:48;;;;;;;15.98;9.75;;;;;;;;;;5035534;28;20049;-70
2021/12/21 00:42:14;;;;;;;15.10;10.10;;;;;;;;;;5034818;28;20327;-70
2021/12/21 00:44:41;;;;;;;16.13;10.50;;;;;;;;;;5029435;28;20049;-71
2021/12/21 00:47:07;;;;;;;16.17;10.02;;;;;;;;;;5018155;28;20447;-70
2021/12/21 00:49:35;;;;;;;17.73;10.50;;;;;;;;;;5032345;28;20127;-70
2021/12/21 00:52:01;;;;;;;18.45;10.95;;;;;;;;;;5030572;28;20049;-70
2021/12/21 00:54:27;;;;;;;16.33;9.32;;;;;;;;;;5029375;28;20133;-71
2021/12/21 00:56:53;;;;;;;13.82;8.88;;;;;;;;;;5013276;28;20371;-71
2021/12/21 00:59:19;;;;;;;16.40;9.38;;;;;;;;;;5013326;28;20151;-70
2021/12/21 01:01:45;;;;;;;18.52;9.82;;;;;;;;;;5031146;28;20041;-70
2021/12/21 01:04:25;;;;;;;16.90;9.57;;;-1.00;99.90;;;;;;5030906;28;20044;-71
2021/12/21 01:07:07;;;;;;;16.92;8.68;;;;;;;;;;5030577;28;20566;-71
2021/12/21 01:10:05;;;;;;;16.85;8.50;;;;;;;;;;5013600;28;20388;-71
2021/12/21 01:12:53;;;;;;;16.17;9.43;;;;;;;;;;5029962;28;20124;-71
2021/12/21 01:15:46;;;;;;;15.32;8.40;;;-1.10;99.90;;;;;;5029176;28;20072;-71
2021/12/21 01:18:20;;;;;;;18.08;8.70;;;;;;;;;;5012615;28;20045;-71
2021/12/21 01:23:50;;;;;;;15.13;8.60;;;;;;;;;;5013099;28;20146;-71
2021/12/21 01:28:53;;;;;;;17.55;9.05;;;;;;;;;;5012718;28;20046;-71
2021/12/21 01:31:36;;;;;;;14.13;8.77;;;;;;;;;;5031050;28;20423;-71
2021/12/21 01:34:20;;;;;;;13.95;7.50;;;-1.10;99.90;;;;;;4996299;28;20392;-71
2021/12/21 01:41:57;;;;;;;12.65;7.00;;;;;;;;;;5030361;28;20045;-70
2021/12/21 01:49:40;;;;;;;14.25;7.60;;;-1.00;99.90;;;;;;5012831;28;20041;-70
2021/12/21 01:52:07;;;;;;;13.57;8.02;;;;;;;;;;5012575;28;20041;-70
2021/12/21 01:54:34;;;;;;;12.30;7.43;;;;;;;;;;4995446;28;20041;-71
2021/12/21 01:56:59;;;;;;;14.20;8.50;;;-1.10;99.90;;;;;;5008002;28;20403;-70
2021/12/21 01:59:25;;;;;;;14.60;8.48;;;;;;;;;;5020414;28;20038;-70
2021/12/21 02:01:52;;;;;;;16.20;8.98;;;;;;;;;;4996293;28;20070;-71
2021/12/21 02:04:17;;;;;;;15.27;9.45;;;;;;;;;;5029207;28;20403;-71
2021/12/21 02:06:44;;;;;;;19.42;9.65;;;;;;;;;;5030195;28;20041;-71
2021/12/21 02:09:10;;;;;;;15.32;9.10;;;;;;;;;;5012176;28;20492;-70
2021/12/21 02:11:36;;;;;;;18.55;10.73;;;-1.10;99.90;;;;;;5030130;28;20124;-70
2021/12/21 02:14:05;;;;;;;20.70;11.15;;;;;;;;;;5029627;28;20411;-70
2021/12/21 02:19:25;;;;;;;17.83;10.38;;;-1.30;99.90;;;;;;5012570;28;20112;-70
2021/12/21 02:21:55;;;;;;;19.65;10.60;;;;;;;;;;5029542;28;20491;-70
2021/12/21 02:24:27;;;;;;;15.82;9.30;;;;;;;;;;5029502;28;20037;-70
2021/12/21 02:27:06;;;;;;;14.50;9.00;;;-1.30;99.90;;;;;;5030052;28;20107;-70
2021/12/21 02:29:35;;;;;;;15.88;9.32;;;;;;;;;;5015164;28;20048;-70
2021/12/21 02:32:01;;;;;;;15.27;8.73;;;;;;;;;;5016592;28;20499;-70
2021/12/21 02:34:27;;;;;;;21.80;10.73;;;;;;;;;;5015606;28;20084;-70
2021/12/21 02:36:54;;;;;;;15.27;8.75;;;;;;;;;;5033123;28;20073;-71
2021/12/21 02:39:21;;;;;;;15.90;9.02;;;;;;;;;;5033350;28;20671;-70
2021/12/21 02:41:47;;;;;;;15.27;8.52;;;;;;;;;;5058305;22;20132;-57
2021/12/21 02:44:13;;;;;;;15.93;8.60;;;;;;;;;;5062271;22;20049;-70
2021/12/21 02:46:39;;;;;;;12.05;7.53;;;-1.50;99.90;;;;;;5055410;28;20071;-70
2021/12/21 02:49:06;;;;;;;13.85;8.20;;;;;;;;;;5055590;28;20446;-70
2021/12/21 02:51:33;;;;;;;13.05;7.82;;;-1.40;99.90;;;;;;5055283;28;20045;-70
2021/12/21 02:53:59;;;;;;;13.35;7.72;;;;;;;;;;5072341;28;20079;-70
2021/12/21 02:56:25;;;;;;;12.55;7.68;;;;;;;;;;5072739;28;20064;-70
2021/12/21 02:58:51;;;;;;;13.55;7.50;;;-1.40;99.90;;;;;;5055272;28;20534;-70
2021/12/21 03:01:17;;;;;;;15.25;8.10;;;-1.40;99.90;;;;;;5073349;28;20128;-70
2021/12/21 03:03:42;;;;;;;14.27;8.23;;;-1.50;99.90;;;;;;5055803;28;20390;-70
2021/12/21 03:06:14;;;;;;;16.42;7.78;;;-1.60;99.90;;;;;;5054512;28;20041;-70
2021/12/21 03:08:44;;;;;;;13.52;8.38;;;;;;;;;;5072406;28;20037;-70
2021/12/21 03:11:22;;;;;;;11.93;7.07;;;;;;;;;;5072845;28;20166;-70
2021/12/21 03:14:03;;;;;;;12.10;7.13;;;-1.50;99.90;;;;;;5073295;28;20055;-70
2021/12/21 03:16:30;;;;;;;11.90;7.43;;;-1.50;99.90;;;;;;5053972;28;20094;-69
2021/12/21 03:18:57;;;;;;;14.60;7.68;;;-1.50;99.90;;;;;;5073057;28;20562;-69
2021/12/21 03:21:23;;;;;;;14.20;7.15;;;;;;;;;;5054838;28;20040;-70
2021/12/21 03:23:49;;;;;;;13.25;7.85;;;;;;;;;;5054380;28;20043;-69
2021/12/21 03:26:15;;;;;;;13.95;7.28;;;;;;;;;;5071867;28;20036;-70
2021/12/21 03:28:41;;;;;;;17.60;7.68;;;;;;;;;;5055120;28;20050;-69
2021/12/21 03:31:09;;;;;;;14.32;7.65;;;;;;;;;;5054406;28;20036;-70
2021/12/21 03:33:36;;;;;;;12.25;7.60;;;;;;;;;;5054452;28;20066;-70
2021/12/21 03:36:02;;;;;;;13.55;7.25;;;;;;;;;;5053783;28;20032;-69
2021/12/21 03:38:29;;;;;;;12.15;7.05;;;;;;;;;;5054762;28;20080;-69
2021/12/21 03:41:01;;;;;;;12.63;7.75;;;-1.70;99.90;;;;;;5071571;28;20115;-70
2021/12/21 03:43:29;;;;;;;13.32;8.65;;;;;;;;;;5054582;28;20036;-70
2021/12/21 03:46:04;;;;;;;15.40;8.43;;;;;;;;;;5036136;28;20514;-69
2021/12/21 03:48:30;;;;;;;16.23;7.63;;;-1.80;99.90;;;;;;5054389;28;20111;-70
2021/12/21 03:50:55;;;;;;;16.15;7.35;;;-1.70;99.90;;;;;;5072617;28;20120;-70
2021/12/21 03:53:21;;;;;;;12.18;7.95;;;;;;;;;;5053932;28;20055;-70
2021/12/21 03:55:54;;;;;;;11.30;6.88;;;;;;;;;;5053824;28;20098;-69
2021/12/21 03:58:20;;;;;;;11.43;7.03;;;;;;;;;;5071855;28;20538;-70
2021/12/21 04:00:46;;;;;;;11.85;6.97;;;;;;;;;;5072242;28;20072;-70
2021/12/21 04:03:12;;;;;;;11.73;7.15;;;;;;;;;;5072018;28;20112;-70
2021/12/21 04:05:38;;;;;;;10.55;7.18;;;;;;;;;;5071898;28;20259;-70
2021/12/21 04:08:04;;;;;;;10.13;6.65;;;;;;;;;;5054095;28;20067;-70
2021/12/21 04:10:30;;;;;;;12.38;7.95;;;;;;;;;;5054353;28;20055;-70
2021/12/21 04:12:55;;;;;;;11.00;6.57;;;-1.80;99.90;;;;;;5054435;28;20044;-70
2021/12/21 04:15:24;;;;;;;9.90;6.72;;;-1.90;99.90;;;;;;5053299;28;20179;-69
2021/12/21 04:17:50;;;;;;;12.77;7.47;;;;;;;;;;5072029;28;20036;-69
2021/12/21 04:20:15;;;;;;;13.38;7.80;;;-1.90;99.90;;;;;;5053653;28;20044;-70
2021/12/21 04:22:41;;;;;;;11.23;7.28;;;;;;;;;;5072136;28;20044;-69
2021/12/21 04:25:08;;;;;;;11.63;7.07;;;;;;;;;;5053073;28;20040;-69
2021/12/21 04:27:34;;;;;;;11.75;7.30;;;;;;;;;;5053968;28;20048;-70
2021/12/21 04:30:00;;;;;;;10.70;7.20;;;;;;;;;;5054294;28;20066;-70
2021/12/21 04:32:26;;;;;;;11.20;7.13;;;;;;;;;;5070766;28;20483;-70
2021/12/21 04:34:52;;;;;;;12.60;7.28;;;;;;;;;;5053592;28;20153;-70
2021/12/21 04:37:18;;;;;;;12.50;7.68;;;-2.10;99.90;;;;;;5053688;28;20044;-70
2021/12/21 04:39:52;;;;;;;11.02;7.28;;;;;;;;;;5053745;28;20040;-70
2021/12/21 04:42:18;;;;;;;13.77;8.07;;;;;;;;;;5071623;28;20044;-70
2021/12/21 04:44:44;;;;;;;12.45;8.13;;;-2.20;99.90;;;;;;5052967;28;20090;-70
2021/12/21 04:47:09;;;;;;;15.27;9.90;;;-2.00;99.90;;;;;;5052779;28;20036;-70
2021/12/21 04:49:35;;;;;;;12.30;8.40;;;;;;;;;;5071783;28;20388;-70
2021/12/21 04:52:01;;;;;;;12.60;7.95;;;;;;;;;;5053341;28;20236;-72
2021/12/21 04:54:27;;;;;;;14.20;8.35;;;;;;;;;;5052420;28;20048;-69
2021/12/21 04:56:53;;;;;;;13.52;8.88;;;;;;;;;;5053251;28;20124;-69
2021/12/21 04:59:20;;;;;;;12.57;7.95;;;;;;;;;;5053804;28;20437;-69
2021/12/21 05:01:46;;;;;;;13.63;8.07;;;-2.10;99.90;;;;;;5052493;28;20045;-69
2021/12/21 05:04:12;;;;;;;13.02;8.48;;;;;;;;;;5052540;28;20044;-70
2021/12/21 05:06:38;;;;;;;12.98;7.70;;;;;;;;;;5071275;28;20245;-69
2021/12/21 05:09:13;;;;;;;14.13;8.70;;;;;;;;;;5052839;28;20502;-69
2021/12/21 05:11:42;;;;;;;14.70;8.77;;;;;;;;;;5052816;28;20049;-69
2021/12/21 05:14:09;;;;;;;15.75;8.70;;;;;;;;;;5071116;28;20051;-69
2021/12/21 05:16:35;;;;;;;14.38;9.02;;;;;;;;;;5069597;28;20041;-69
2021/12/21 05:19:01;;;;;;;16.38;9.85;;;;;;;;;;5053073;28;20143;-69
2021/12/21 05:21:27;;;;;;;18.13;11.25;;;-2.10;99.90;;;;;;5052696;28;20119;-69
2021/12/21 05:23:53;;;;;;;20.30;10.20;;;;;;;;;;5053337;28;20388;-69
2021/12/21 05:26:19;;;;;;;15.93;9.65;;;;;;;;;;5070109;28;20074;-69
2021/12/21 05:28:45;;;;;;;17.80;10.40;;;;;;;;;;5053331;28;20075;-69
2021/12/21 05:31:11;;;;;;;17.65;10.60;;;;;;;;;;5069194;28;20499;-69
2021/12/21 05:33:37;;;;;;;18.73;11.43;;;-2.10;99.90;;;;;;5053004;28;20052;-69
2021/12/21 05:36:03;;;;;;;21.50;10.55;;;-2.00;99.90;;;;;;5035446;28;20032;-69
2021/12/21 05:38:32;;;;;;;16.48;9.57;;;;;;;;;;5052465;28;20403;-69
2021/12/21 05:41:01;;;;;;;18.20;10.70;;;;;;;;;;5053009;28;20119;-69
2021/12/21 05:43:28;;;;;;;18.70;11.05;;;-2.40;99.90;;;;;;5052783;28;20078;-69
2021/12/21 05:45:54;;;;;;;15.93;9.88;;;;;;;;;;5034685;28;20169;-69
2021/12/21 05:48:20;;;;;;;18.75;10.55;;;-2.00;99.90;;;;;;5071423;28;20041;-69
2021/12/21 05:50:46;;;;;;;19.15;10.88;;;-2.00;99.90;;;;;;5069608;28;20487;-68
2021/12/21 05:53:12;;;;;;;16.60;10.90;;;;;;;;;;5070632;28;20048;-68
2021/12/21 05:55:39;;;;;;;21.10;11.98;;;;;;;;;;5051492;28;20049;-69
2021/12/21 05:58:05;;;;;;;22.25;12.30;;;;;;;;;;5070665;28;20048;-69
2021/12/21 06:00:33;;;;;;;22.15;13.27;;;;;;;;;;5069541;28;20037;-69
2021/12/21 06:02:59;;;;;;;23.17;13.13;;;-2.10;99.90;;;;;;5055107;28;20032;-68
2021/12/21 06:05:25;;;;;;;22.58;13.65;;;;;;;;;;5075907;28;20089;-69
2021/12/21 06:07:52;;;;;;;27.73;15.10;;;-2.00;99.90;;;;;;5077368;28;20414;-68
2021/12/21 06:10:26;;;;;;;19.60;14.25;;;;;;;;;;5058843;28;20306;-69
2021/12/21 06:15:39;;;;;;;21.55;14.55;;;-2.00;99.90;;;;;;5075364;28;20045;-69
2021/12/21 06:26:15;;;;;;;25.63;16.13;;;-2.00;99.90;;;;;;5076416;28;20086;-69
2021/12/21 06:28:41;;;;;;;26.48;16.95;;;;;;;;;;5058517;28;20036;-69
2021/12/21 06:31:08;;;;;;;25.88;15.50;;;;;;;;;;5058813;28;20055;-69
2021/12/21 06:33:34;;;;;;;23.55;14.82;;;;;;;;;;5055602;28;20044;-69
2021/12/21 06:36:00;;;;;;;29.25;15.38;;;;;;;;;;5058099;28;20048;-69
2021/12/21 06:38:26;;;;;;;26.17;13.63;;;;;;;;;;5075929;28;20043;-69
2021/12/21 06:40:53;;;;;;;21.20;12.35;;;;;;;;;;5075702;28;20067;-69
2021/12/21 06:43:19;;;;;;;22.23;12.73;;;;;;;;;;5041725;28;20138;-68
2021/12/21 06:46:45;;;;;;;17.98;10.50;;;;;;;;;;5071458;28;20128;-69
2021/12/21 06:53:56;;;;;;;16.83;10.48;;;;;;;;;;5075605;28;20036;-69
2021/12/21 06:56:23;;;;;;;14.63;8.88;;;;;;;;;;5073049;28;20048;-69
2021/12/21 06:58:49;;;;;;;14.75;8.77;;;;;;;;;;5055494;28;20040;-68
2021/12/21 07:01:15;;;;;;;13.15;8.98;;;;;;;;;;5075153;28;20040;-68
2021/12/21 07:03:42;;;;;;;14.30;9.07;;;;;;;;;;5073860;28;20098;-69
2021/12/21 07:06:08;;;;;;;13.60;8.52;;;;;;;;;;5069287;28;20040;-69
2021/12/21 07:08:46;;;;;;;13.13;8.27;;;;;;;;;;5054271;28;20044;-68
2021/12/21 07:11:20;;;;;;;19.63;10.82;;;-1.90;99.90;;;;;;5053832;28;20040;-69
2021/12/21 07:19:16;;;;;;;14.73;10.13;;;-2.60;99.90;;;;;;5047953;28;20294;-68
2021/12/21 07:21:42;;;;;;;16.30;11.73;;;;;;;;;;5058388;28;20059;-68
2021/12/21 07:24:08;;;;;;;17.48;10.90;;;;;;;;;;5054281;28;20491;-68
2021/12/21 07:26:34;;;;;;;18.20;12.18;;;;;;;;;;5053380;28;20036;-68
2021/12/21 07:29:00;;;;;;;24.75;13.75;;;;;;;;;;5069135;28;20036;-68
2021/12/21 07:31:26;;;;;;;17.70;11.75;;;;;;;;;;5054810;28;20089;-68
2021/12/21 07:33:52;;;;;;;20.15;11.95;;;;;;;;;;5072605;28;20044;-68
2021/12/21 07:36:18;;;;;;;15.45;11.13;;;;;;;;;;5052750;28;20724;-68
2021/12/21 07:38:44;;;;;;;19.55;12.73;;;;;;;;;;5046009;28;20080;-69
2021/12/21 07:41:10;;;;;;;23.92;14.07;;;-2.40;99.90;;;;;;5068494;28;20090;-68
2021/12/21 07:43:35;;;;;;;22.33;13.82;;;-2.50;99.90;;;;;;5052397;28;20457;-68
2021/12/21 07:46:01;;;;;;;19.27;12.43;;;;;;;;;;5070299;28;20040;-68
2021/12/21 07:48:27;;;;;;;18.55;11.35;;;;;;;;;;5071515;28;20044;-67
2021/12/21 07:50:55;;;;;;;18.85;11.57;;;;;;;;;;5066532;28;20036;-68
2021/12/21 07:53:21;;;;;;;16.77;11.85;;;;;;;;;;5049044;28;20056;-68
2021/12/21 07:55:47;;;;;;;18.85;11.50;;;;;;;;;;5048095;28;20410;-69
2021/12/21 07:58:14;;;;;;;14.88;11.40;;;;;;;;;;5071523;28;20036;-69
2021/12/21 08:00:40;;;;;;;18.73;12.65;;;;;;;;;;5071590;28;20470;-69
2021/12/21 08:03:06;;;;;;;17.02;13.02;;;;;;;;;;5053782;28;20481;-68
2021/12/21 08:05:34;;;;;;;20.52;13.18;;;;;;;;;;5070874;28;20410;-68
2021/12/21 08:08:12;;;;;;;19.38;12.05;;;;;;;;;;5071585;28;20055;-67
2021/12/21 08:11:15;;;;;;;22.50;14.30;;;-2.30;99.90;;;;;;5053437;28;20053;-68
2021/12/21 08:13:29;;;;;;;21.70;13.75;;;-2.50;99.90;;;;;;5068398;28;20060;-68
2021/12/21 08:15:55;;;;;;;18.88;13.80;;;;;;;;;;5070637;28;20040;-67
2021/12/21 08:18:21;;;;;;;22.80;14.70;;;;;;;;;;5062259;28;20033;-66
2021/12/21 08:20:47;;;;;;;20.88;14.13;;;;;;;;;;5062611;28;20033;-68
2021/12/21 08:23:13;;;;;;;21.08;14.00;;;;;;;;;;5070641;28;20409;-68
2021/12/21 08:25:39;;;;;;;25.92;15.88;;;;;;;;;;5069165;28;20032;-67
2021/12/21 08:28:06;;;;;;;24.25;15.80;;;;;;;;;;5059768;28;20036;-68
2021/12/21 08:30:32;;;;;;;24.00;15.40;;;;;;;;;;5048681;28;20119;-67
2021/12/21 08:32:59;;;;;;;24.15;15.93;;;;;;;;;;5069451;28;20051;-66
2021/12/21 08:35:25;;;;;;;26.92;16.38;;;;;;;;;;5068830;28;20455;-66
2021/12/21 08:38:02;;;;;;;29.40;17.27;;;;;;;;;;5070421;28;20494;-66
2021/12/21 08:40:36;;;;;;;26.77;18.63;;;-2.00;99.90;;;;;;5052756;28;20048;-66
2021/12/21 08:43:03;;;;;;;32.97;22.63;;;-1.90;99.90;;;;;;5070535;28;20414;-68
2021/12/21 08:45:30;;;;;;;27.48;19.50;;;;;;;;;;5069420;28;20517;-67
2021/12/21 08:47:58;;;;;;;30.08;21.15;;;-2.00;99.90;;;;;;5069857;28;20060;-66
2021/12/21 08:50:24;;;;;;;28.83;20.15;;;-1.90;99.90;;;;;;5070590;28;20051;-66
2021/12/21 08:52:50;;;;;;;32.00;21.02;;;;;;;;;;5053180;28;20044;-66
2021/12/21 08:55:17;;;;;;;37.05;20.98;;;;;;;;;;5056591;28;20078;-66
2021/12/21 08:57:43;;;;;;;29.55;22.02;;;-1.80;99.90;;;;;;5061231;28;20047;-65
2021/12/21 09:00:10;;;;;;;30.02;21.52;;;;;;;;;;5039577;28;20037;-66
2021/12/21 09:02:37;;;;;;;32.60;21.98;;;;;;;;;;5056334;28;20128;-65
2021/12/21 09:05:11;;;;;;;32.20;21.65;;;;;;;;;;5033784;28;20048;-65
2021/12/21 09:07:38;;;;;;;30.90;22.25;;;-1.20;99.90;;;;;;5060276;28;20060;-65
2021/12/21 09:10:05;;;;;;;32.40;22.02;;;;;;;;;;5054122;28;20498;-64
2021/12/21 09:12:30;;;;;;;41.60;24.13;;;-1.20;99.90;;;;;;5059856;28;20491;-67
2021/12/21 09:14:56;;;;;;;30.58;22.55;;;;;;;;;;5057527;28;20043;-67
2021/12/21 09:17:22;;;;;;;34.97;24.13;;;-0.90;99.90;;;;;;5056483;28;20068;-67
2021/12/21 09:19:48;;;;;;;34.42;23.08;;;;;;;;;;5057748;28;20037;-66
2021/12/21 09:22:14;;;;;;;40.03;25.13;;;;;;;;;;5057975;28;20064;-67
2021/12/21 09:24:40;;;;;;;39.00;24.17;;;;;;;;;;5054909;28;20037;-66
2021/12/21 09:27:06;;;;;;;38.70;25.58;;;;;;;;;;5037324;28;20380;-67
2021/12/21 09:29:32;;;;;;;40.03;25.98;;;;;;;;;;5057057;28;20052;-68
2021/12/21 09:31:58;;;;;;;42.70;25.55;;;;;;;;;;5043945;28;20533;-68
2021/12/21 09:34:24;;;;;;;34.35;24.70;;;;;;;;;;5056036;28;20045;-68
2021/12/21 09:36:52;;;;;;;37.72;25.48;;;-0.40;99.90;;;;;;5041548;28;20052;-68
2021/12/21 09:39:18;;;;;;;37.83;24.48;;;-0.20;99.90;;;;;;5031829;28;20047;-68
2021/12/21 09:41:45;;;;;;;41.38;26.20;;;;;;;;;;5038917;28;20399;-69
2021/12/21 09:44:11;;;;;;;37.58;24.05;;;0.00;99.90;;;;;;5046785;28;20041;-67
2021/12/21 09:46:37;;;;;;;37.38;25.35;;;;;;;;;;5069280;28;20068;-68
2021/12/21 09:49:03;;;;;;;38.35;24.15;;;-0.50;99.90;;;;;;5064273;28;20083;-68
2021/12/21 09:51:29;;;;;;;36.33;24.63;;;0.30;99.90;;;;;;5032644;28;20515;-67
2021/12/21 09:53:56;;;;;;;35.00;23.65;;;;;;;;;;5033312;28;20124;-67
2021/12/21 09:56:23;;;;;;;36.10;23.08;;;;;;;;;;5067474;28;20593;-68
2021/12/21 09:58:49;;;;;;;36.20;24.10;;;;;;;;;;5068598;28;20045;-67
2021/12/21 10:01:17;;;;;;;36.10;23.70;;;;;;;;;;5051401;28;20037;-69
2021/12/21 10:03:43;;;;;;;35.17;23.15;;;;;;;;;;5066709;28;20044;-68
2021/12/21 10:06:11;;;;;;;36.10;23.17;;;;;;;;;;5069509;28;20066;-69
2021/12/21 10:08:37;;;;;;;35.78;22.52;;;;;;;;;;5070137;28;20131;-68
2021/12/21 10:11:04;;;;;;;31.02;20.90;;;;;;;;;;5069485;28;20115;-70
2021/12/21 10:13:30;;;;;;;34.15;21.30;;;1.00;99.90;;;;;;5050886;28;20040;-69
2021/12/21 10:16:02;;;;;;;33.13;21.20;;;;;;;;;;5034016;28;20041;-70
2021/12/21 10:18:29;;;;;;;36.60;22.10;;;;;;;;;;5028338;28;20123;-68
2021/12/21 10:20:57;;;;;;;35.50;21.83;;;;;;;;;;5036587;28;20124;-68
2021/12/21 10:23:24;;;;;;;35.38;21.58;;;;;;;;;;5064330;28;20074;-68
2021/12/21 10:25:56;;;;;;;30.17;20.73;;;;;;;;;;5051635;28;20045;-68
2021/12/21 10:28:26;;;;;;;32.38;20.13;;;;;;;;;;5062712;28;20051;-68
2021/12/21 10:30:53;;;;;;;30.40;19.80;;;;;;;;;;5061752;28;20062;-69
2021/12/21 10:33:21;;;;;;;30.60;21.42;;;;;;;;;;5062881;28;20044;-68
2021/12/21 10:35:47;;;;;;;32.90;20.98;;;;;;;;;;5061830;28;20036;-68
2021/12/21 10:38:23;;;;;;;32.65;19.83;;;;;;;;;;5055859;28;20085;-68
2021/12/21 10:40:50;;;;;;;26.08;18.27;;;;;;;;;;5038030;28;20040;-68
2021/12/21 10:43:16;;;;;;;33.05;19.65;;;;;;;;;;5033097;28;20052;-68
2021/12/21 10:45:43;;;;;;;28.27;19.17;;;1.50;99.90;;;;;;5054767;28;20036;-68
2021/12/21 10:48:18;;;;;;;25.67;17.35;;;1.50;99.90;;;;;;5036236;28;20057;-68
2021/12/21 10:50:45;;;;;;;29.35;17.02;;;;;;;;;;5057030;28;20037;-68
2021/12/21 10:53:17;;;;;;;27.65;17.80;;;;;;;;;;5038366;28;20045;-68
2021/12/21 10:55:43;;;;;;;27.40;16.55;;;;;;;;;;5057770;28;20049;-68
2021/12/21 10:58:16;;;;;;;24.27;16.30;;;;;;;;;;5062500;28;20044;-68
2021/12/21 11:00:45;;;;;;;30.75;17.50;;;;;;;;;;5058827;28;20048;-68
2021/12/21 11:03:16;;;;;;;26.90;15.48;;;;;;;;;;5044014;28;20044;-68
2021/12/21 11:05:42;;;;;;;24.67;15.35;;;2.20;99.90;;;;;;5034954;28;20040;-68
2021/12/21 11:08:16;;;;;;;22.77;14.85;;;;;;;;;;5059583;28;20045;-68
2021/12/21 11:10:48;;;;;;;37.38;15.48;;;;;;;;;;5061182;28;20516;-68
2021/12/21 11:13:15;;;;;;;25.15;14.30;;;2.10;99.90;;;;;;5058765;28;20029;-68
2021/12/21 11:15:52;;;;;;;20.85;13.85;;;;;;;;;;5055932;28;20550;-68
2021/12/21 11:18:19;;;;;;;18.15;12.63;;;;;;;;;;5056693;28;20037;-68
2021/12/21 11:20:48;;;;;;;26.85;13.45;;;;;;;;;;5059229;28;20036;-68
2021/12/21 11:23:15;;;;;;;20.05;11.50;;;;;;;;;;5063655;28;20076;-68
2021/12/21 11:25:42;;;;;;;20.15;11.25;;;2.60;99.90;;;;;;5058513;28;20033;-68
2021/12/21 11:28:09;;;;;;;15.73;10.45;;;;;;;;;;5055453;28;20036;-68
2021/12/21 11:30:35;;;;;;;22.83;9.75;;;;;;;;;;5061453;28;20398;-68
2021/12/21 11:33:03;;;;;;;16.85;10.55;;;2.90;99.90;;;;;;5045162;28;20149;-68
2021/12/21 11:37:57;;;;;;;15.45;9.88;;;;;;;;;;5066877;28;20044;-69
2021/12/21 11:40:29;;;;;;;17.55;8.95;;;;;;;;;;5072055;28;20041;-69
2021/12/21 11:43:01;;;;;;;15.80;8.57;;;;;;;;;;5032995;28;20037;-69
2021/12/21 11:45:29;;;;;;;18.63;8.52;;;;;;;;;;5033641;28;20441;-69
2021/12/21 11:48:13;;;;;;;14.63;7.93;;;;;;;;;;5042420;28;20044;-70
2021/12/21 11:50:40;;;;;;;15.18;6.68;;;;;;;;;;5047982;28;20047;-69
2021/12/21 11:53:07;;;;;;;14.98;6.43;;;;;;;;;;5072705;28;20499;-69
2021/12/21 11:55:34;;;;;;;12.52;7.15;;;;;;;;;;5071903;28;20120;-70
2021/12/21 11:58:02;;;;;;;11.70;6.60;;;;;;;;;;5054299;28;20090;-70
2021/12/21 12:00:34;;;;;;;11.13;5.55;;;;;;;;;;5071468;28;20090;-70
2021/12/21 12:03:14;;;;;;;12.65;5.78;;;;;;;;;;5036701;28;20076;-70
2021/12/21 12:05:51;;;;;;;13.75;5.38;;;;;;;;;;5052869;28;20048;-70
2021/12/21 12:08:16;;;;;;;12.13;5.45;;;4.00;99.90;;;;;;5071686;28;20032;-70
2021/12/21 12:10:54;;;;;;;13.65;5.10;;;;;;;;;;5048878;28;20047;-70
2021/12/21 12:13:26;;;;;;;10.77;5.13;;;;;;;;;;5053855;28;20104;-70
2021/12/21 12:15:54;;;;;;;11.63;4.95;;;4.10;99.90;;;;;;5052971;28;20048;-70
2021/12/21 12:18:27;;;;;;;10.82;4.50;;;;;;;;;;5070543;28;20069;-71
2021/12/21 12:20:53;;;;;;;12.55;5.68;;;;;;;;;;5053667;28;20055;-71
2021/12/21 12:23:19;;;;;;;10.07;4.85;;;;;;;;;;5037010;28;20041;-71
2021/12/21 12:25:51;;;;;;;11.43;4.00;;;5.30;99.90;;;;;;5070547;28;20047;-72
2021/12/21 12:28:26;;;;;;;9.07;3.90;;;5.50;99.90;;;;;;5071851;28;20040;-72
2021/12/21 12:30:52;;;;;;;9.30;4.10;;;4.90;99.90;;;;;;5071832;28;20051;-70
2021/12/21 12:33:18;;;;;;;9.23;4.00;;;;;;;;;;5070177;28;20047;-71
2021/12/21 12:35:44;;;;;;;9.57;4.30;;;5.20;99.90;;;;;;5051876;28;20075;-71
2021/12/21 12:38:15;;;;;;;12.52;4.25;;;;;;;;;;5053292;28;20049;-71
2021/12/21 12:40:44;;;;;;;10.25;4.18;;;;;;;;;;5053730;28;20105;-71
2021/12/21 12:43:11;;;;;;;8.75;4.28;;;;;;;;;;5052443;28;20321;-71
2021/12/21 12:45:41;;;;;;;8.98;4.13;;;;;;;;;;5052122;28;20068;-72
2021/12/21 12:48:32;;;;;;;13.98;4.28;;;6.20;99.90;;;;;;5070821;28;20075;-71
2021/12/21 12:51:01;;;;;;;10.38;4.63;;;6.00;99.90;;;;;;5053132;28;20071;-71
2021/12/21 12:53:54;;;;;;;10.18;3.75;;;;;;;;;;5052470;28;20050;-71
2021/12/21 12:56:20;;;;;;;7.38;4.00;;;6.40;99.90;;;;;;5067857;28;20083;-71
2021/12/21 12:58:55;;;;;;;11.98;4.38;;;;;;;;;;5052726;28;20458;-71
2021/12/21 13:01:25;;;;;;;15.20;4.75;;;6.40;99.90;;;;;;5069904;28;20165;-71
2021/12/21 13:03:53;;;;;;;10.27;4.13;;;;;;;;;;5070684;28;20037;-71
2021/12/21 13:06:20;;;;;;;6.90;3.50;;;;;;;;;;5069765;28;20059;-71
2021/12/21 13:08:46;;;;;;;9.70;4.13;;;7.50;99.90;;;;;;5069699;28;20044;-71
2021/12/21 13:11:14;;;;;;;14.77;4.10;;;;;;;;;;5052193;28;20053;-72
2021/12/21 13:13:42;;;;;;;10.00;4.15;;;7.70;99.90;;;;;;5052032;28;20120;-72
2021/12/21 13:16:11;;;;;;;8.80;4.15;;;9.50;99.90;;;;;;5051368;28;20044;-70
2021/12/21 13:18:51;;;;;;;13.70;4.10;;;11.50;99.90;;;;;;5051954;28;20044;-70
2021/12/21 13:21:19;;;;;;;8.57;4.07;;;;;;;;;;5070795;28;20040;-70
2021/12/21 13:23:47;;;;;;;10.05;4.47;;;;;;;;;;5051957;28;20044;-71
2021/12/21 13:26:13;;;;;;;10.40;4.32;;;;;;;;;;5051408;28;20188;-71
2021/12/21 13:28:50;;;;;;;7.65;3.65;;;10.40;99.90;;;;;;5070052;28;20527;-71
2021/12/21 13:31:18;;;;;;;11.32;4.15;;;;;;;;;;5070072;28;20049;-71
2021/12/21 13:33:48;;;;;;;9.25;4.18;;;9.20;99.90;;;;;;5068471;28;20067;-71
2021/12/21 13:36:14;;;;;;;8.50;3.47;;;;;;;;;;5034641;28;20075;-72
2021/12/21 13:38:40;;;;;;;9.50;4.57;;;;;;;;;;5052212;28;20044;-72
2021/12/21 13:41:08;;;;;;;8.05;3.95;;;;;;;;;;5035634;28;20043;-72
2021/12/21 13:43:35;;;;;;;9.38;4.30;;;;;;;;;;5052259;28;20048;-72
2021/12/21 13:46:03;;;;;;;7.85;2.95;;;;;;;;;;5068718;28;20068;-72
2021/12/21 13:48:30;;;;;;;8.07;3.75;;;7.30;99.90;;;;;;5051711;28;20441;-72
2021/12/21 13:51:16;;;;;;;12.90;3.67;;;7.20;99.90;;;;;;5051746;28;20142;-73
2021/12/21 13:53:47;;;;;;;10.57;4.15;;;;;;;;;;5052372;28;20082;-73
2021/12/21 13:56:15;;;;;;;10.68;4.28;;;;;;;;;;5050624;28;20072;-72
2021/12/21 13:58:41;;;;;;;7.93;3.78;;;;;;;;;;5070208;28;20090;-72
2021/12/21 14:01:08;;;;;;;11.15;3.88;;;;;;;;;;5051946;28;20097;-73
2021/12/21 14:03:38;;;;;;;8.98;4.05;;;7.10;99.90;;;;;;5050993;28;20494;-72
2021/12/21 14:06:13;;;;;;;9.77;4.03;;;;;;;;;;5069173;28;20048;-73
2021/12/21 14:08:45;;;;;;;9.13;3.90;;;7.20;99.90;;;;;;5051204;28;20044;-72
2021/12/21 14:11:13;;;;;;;9.80;3.78;;;6.80;99.90;;;;;;5051791;28;20064;-73
2021/12/21 14:13:43;;;;;;;9.88;3.83;;;7.00;99.90;;;;;;5051759;28;20040;-73
2021/12/21 14:16:14;;;;;;;11.45;4.38;;;;;;;;;;5034457;28;20044;-73
2021/12/21 14:18:41;;;;;;;13.30;4.40;;;;;;;;;;5034256;28;20044;-73
2021/12/21 14:21:13;;;;;;;9.93;4.00;;;6.00;99.90;;;;;;5050964;28;20044;-73
2021/12/21 14:24:01;;;;;;;10.50;3.97;;;;;;;;;;5070379;28;20044;-73
2021/12/21 14:26:34;;;;;;;8.73;4.43;;;;;;;;;;5054950;28;20112;-73
2021/12/21 14:29:01;;;;;;;9.80;3.85;;;;;;;;;;5055500;28;20045;-73
2021/12/21 14:31:46;;;;;;;11.38;4.88;;;6.40;99.90;;;;;;5054125;28;20127;-73
2021/12/21 14:34:18;;;;;;;9.65;4.28;;;6.60;99.90;;;;;;5047930;28;20106;-73
2021/12/21 14:36:44;;;;;;;8.60;3.83;;;;;;;;;;5037754;28;20037;-73
2021/12/21 14:39:13;;;;;;;9.30;5.15;;;5.90;99.90;;;;;;5037032;28;20598;-73
2021/12/21 14:41:42;;;;;;;14.95;4.70;;;;;;;;;;5043028;22;20052;-57
2021/12/21 14:44:11;;;;;;;11.82;4.22;;;;;;;;;;5065675;22;20307;-58
2021/12/21 14:46:38;;;;;;;10.93;4.55;;;;;;;;;;5041673;28;20045;-57